createdAt,value
2018-03-04T00:00:00.244Z,90.65
2018-03-04T00:01:02.774Z,110.32
2018-03-04T00:02:05.330Z,116.90
2018-03-04T00:03:07.858Z,116.37
2018-03-04T00:04:10.370Z,122.60
2018-03-04T00:05:12.909Z,115.18
2018-03-04T00:06:15.452Z,121.30
2018-03-04T00:07:17.965Z,125.78
2018-03-04T00:08:20.486Z,112.70
2018-03-04T00:09:23.007Z,128.12
2018-03-04T00:10:25.534Z,125.90
2018-03-04T00:11:28.070Z,122.78
2018-03-04T00:12:30.586Z,129.12
2018-03-04T00:13:33.110Z,116.60
2018-03-04T00:14:35.630Z,115.88
2018-03-04T00:15:38.150Z,118.87
2018-03-04T00:16:40.690Z,132.77
2018-03-04T00:17:43.231Z,123.10
2018-03-04T00:18:45.772Z,113.10
2018-03-04T00:19:48.291Z,124.68
2018-03-04T00:20:50.822Z,123.40
2018-03-04T00:21:53.354Z,118.13
2018-03-04T00:22:55.865Z,122.70
2018-03-04T00:23:58.406Z,121.32
2018-03-04T00:25:00.937Z,115.40
2018-03-04T00:26:03.484Z,117.62
2018-03-04T00:27:06.027Z,125.68
2018-03-04T00:28:08.600Z,123.18
2018-03-04T00:29:11.155Z,120.95
2018-03-04T00:30:13.721Z,112.88
2018-03-04T00:31:16.234Z,106.20
2018-03-04T00:32:18.773Z,126.18
2018-03-04T00:33:21.310Z,128.48
2018-03-04T00:34:23.844Z,127.95
2018-03-04T00:35:26.414Z,128.65
2018-03-04T00:36:28.934Z,117.10
2018-03-04T00:37:31.450Z,118.37
2018-03-04T00:38:33.994Z,125.12
2018-03-04T00:39:36.526Z,108.28
2018-03-04T00:40:39.061Z,121.18
2018-03-04T00:41:41.586Z,122.53
2018-03-04T00:42:44.130Z,129.90
2018-03-04T00:43:46.676Z,114.70
2018-03-04T00:44:49.204Z,127.50
2018-03-04T00:45:51.740Z,123.32
2018-03-04T00:46:54.272Z,122.93
2018-03-04T00:47:56.801Z,122.25
2018-03-04T00:48:59.322Z,137.85
2018-03-04T00:50:01.838Z,131.05
2018-03-04T00:51:04.381Z,124.20
2018-03-04T00:52:06.910Z,123.30
2018-03-04T00:53:09.449Z,122.65
2018-03-04T00:54:11.994Z,132.52
2018-03-04T00:55:14.568Z,121.20
2018-03-04T00:56:17.154Z,127.45
2018-03-04T00:57:19.674Z,128.10
2018-03-04T00:58:22.185Z,128.10
2018-03-04T00:59:24.725Z,131.87
2018-03-04T01:00:27.276Z,131.00
2018-03-04T01:01:29.802Z,123.82
2018-03-04T01:02:32.318Z,134.37
2018-03-04T01:03:34.851Z,132.85
2018-03-04T01:04:37.405Z,136.82
2018-03-04T01:05:39.917Z,131.12
2018-03-04T01:06:42.452Z,125.75
2018-03-04T01:07:44.971Z,121.60
2018-03-04T01:08:47.507Z,129.65
2018-03-04T01:09:50.036Z,123.35
2018-03-04T01:10:52.558Z,122.93
2018-03-04T01:11:55.097Z,140.27
2018-03-04T01:12:57.633Z,127.53
2018-03-04T01:14:00.169Z,134.43
2018-03-04T01:15:02.703Z,130.25
2018-03-04T01:16:05.240Z,128.93
2018-03-04T01:17:07.772Z,132.30
2018-03-04T01:18:10.291Z,123.87
2018-03-04T01:19:12.805Z,126.05
2018-03-04T01:20:15.340Z,126.87
2018-03-04T01:21:17.868Z,117.10
2018-03-04T01:22:20.382Z,141.45
2018-03-04T01:23:22.923Z,127.75
2018-03-04T01:24:25.532Z,128.70
2018-03-04T01:25:28.034Z,130.05
2018-03-04T01:26:30.567Z,143.18
2018-03-04T01:27:33.088Z,123.62
2018-03-04T01:28:35.605Z,130.50
2018-03-04T01:29:38.132Z,142.05
2018-03-04T01:30:40.692Z,137.25
2018-03-04T01:31:43.214Z,133.50
2018-03-04T01:32:45.739Z,132.20
2018-03-04T01:33:48.283Z,121.55
2018-03-04T01:34:50.835Z,134.90
2018-03-04T01:35:53.366Z,124.87
2018-03-04T01:36:55.886Z,134.25
2018-03-04T01:37:58.415Z,139.70
2018-03-04T01:39:00.926Z,131.82
2018-03-04T01:40:03.445Z,122.97
2018-03-04T01:41:05.989Z,131.80
2018-03-04T01:42:08.521Z,131.57
2018-03-04T01:43:11.056Z,128.60
2018-03-04T01:44:13.587Z,126.50
2018-03-04T01:45:16.128Z,133.55
2018-03-04T01:46:18.684Z,135.00
2018-03-04T01:47:21.216Z,141.45
2018-03-04T01:48:23.750Z,130.85
2018-03-04T01:49:26.280Z,138.15
2018-03-04T01:50:28.798Z,131.48
2018-03-04T01:51:43.083Z,137.62
2018-03-04T01:52:45.631Z,121.47
2018-03-04T01:53:48.186Z,137.25
2018-03-04T01:54:50.707Z,129.30
2018-03-04T01:55:53.235Z,135.45
2018-03-04T01:56:55.773Z,134.87
2018-03-04T01:57:58.308Z,127.95
2018-03-04T01:59:00.899Z,132.37
2018-03-04T02:00:03.436Z,130.85
2018-03-04T02:01:05.967Z,147.07
2018-03-04T02:02:08.507Z,136.37
2018-03-04T02:03:11.023Z,132.70
2018-03-04T02:04:13.568Z,134.45
2018-03-04T02:05:16.082Z,131.70
2018-03-04T02:06:18.598Z,131.87
2018-03-04T02:07:21.224Z,136.65
2018-03-04T02:08:23.766Z,133.73
2018-03-04T02:09:26.295Z,128.23
2018-03-04T02:10:28.818Z,136.25
2018-03-04T02:11:31.347Z,129.85
2018-03-04T02:12:33.890Z,130.30
2018-03-04T02:13:36.405Z,132.40
2018-03-04T02:14:38.961Z,124.65
2018-03-04T02:15:41.483Z,125.35
2018-03-04T02:16:44.016Z,131.30
2018-03-04T02:17:46.563Z,135.52
2018-03-04T02:18:49.109Z,133.95
2018-03-04T02:19:51.670Z,126.32
2018-03-04T02:20:54.208Z,135.52
2018-03-04T02:21:56.740Z,120.32
2018-03-04T02:22:59.278Z,140.18
2018-03-04T02:24:01.817Z,124.93
2018-03-04T02:25:04.369Z,134.75
2018-03-04T02:26:06.949Z,124.75
2018-03-04T02:27:09.466Z,144.43
2018-03-04T02:28:12.019Z,123.20
2018-03-04T02:29:14.552Z,129.12
2018-03-04T02:30:17.097Z,121.47
2018-03-04T02:31:19.624Z,133.27
2018-03-04T02:32:22.145Z,133.12
2018-03-04T02:33:24.703Z,131.95
2018-03-04T02:34:27.223Z,137.20
2018-03-04T02:35:29.761Z,128.73
2018-03-04T02:36:32.292Z,111.72
2018-03-04T02:37:34.825Z,131.02
2018-03-04T02:38:37.385Z,123.38
2018-03-04T02:39:39.916Z,127.97
2018-03-04T02:40:42.448Z,130.43
2018-03-04T02:41:44.985Z,121.75
2018-03-04T02:42:47.510Z,130.00
2018-03-04T02:43:50.081Z,134.80
2018-03-04T02:44:52.618Z,130.80
2018-03-04T02:45:55.135Z,127.72
2018-03-04T02:46:57.658Z,127.05
2018-03-04T02:48:00.199Z,123.05
2018-03-04T02:49:02.745Z,125.75
2018-03-04T02:50:05.280Z,125.93
2018-03-04T02:51:07.832Z,128.70
2018-03-04T02:52:10.397Z,125.75
2018-03-04T02:53:12.910Z,135.45
2018-03-04T02:54:15.450Z,117.72
2018-03-04T02:55:17.973Z,130.10
2018-03-04T02:56:20.487Z,131.85
2018-03-04T02:57:23.005Z,125.35
2018-03-04T02:58:25.548Z,135.95
2018-03-04T02:59:28.108Z,123.70
2018-03-04T03:00:30.653Z,128.93
2018-03-04T03:01:33.188Z,124.95
2018-03-04T03:02:35.737Z,135.05
2018-03-04T03:03:38.280Z,136.82
2018-03-04T03:04:40.819Z,129.57
2018-03-04T03:05:43.365Z,122.30
2018-03-04T03:06:45.898Z,121.00
2018-03-04T03:07:48.427Z,115.30
2018-03-04T03:08:50.964Z,126.50
2018-03-04T03:09:53.497Z,123.62
2018-03-04T03:10:56.028Z,127.35
2018-03-04T03:11:58.541Z,120.25
2018-03-04T03:13:01.076Z,138.65
2018-03-04T03:14:03.600Z,129.75
2018-03-04T03:15:06.149Z,129.95
2018-03-04T03:16:08.673Z,135.93
2018-03-04T03:17:11.193Z,130.77
2018-03-04T03:18:13.735Z,124.43
2018-03-04T03:19:16.247Z,123.90
2018-03-04T03:20:18.826Z,129.50
2018-03-04T03:21:21.369Z,140.82
2018-03-04T03:22:23.904Z,129.15
2018-03-04T03:23:26.452Z,139.35
2018-03-04T03:24:28.973Z,129.77
2018-03-04T03:25:31.517Z,142.37
2018-03-04T03:26:34.037Z,123.65
2018-03-04T03:27:36.567Z,124.47
2018-03-04T03:28:39.082Z,121.43
2018-03-04T03:29:41.642Z,124.43
2018-03-04T03:30:44.237Z,126.68
2018-03-04T03:31:46.760Z,129.77
2018-03-04T03:32:49.278Z,133.10
2018-03-04T03:33:51.816Z,126.38
2018-03-04T03:34:54.337Z,130.02
2018-03-04T03:35:56.894Z,130.00
2018-03-04T03:36:59.433Z,123.47
2018-03-04T03:38:01.950Z,125.55
2018-03-04T03:39:04.505Z,129.70
2018-03-04T03:40:07.017Z,131.52
2018-03-04T03:41:09.581Z,137.80
2018-03-04T03:42:12.113Z,126.57
2018-03-04T03:43:14.652Z,133.87
2018-03-04T03:44:17.161Z,128.18
2018-03-04T03:45:19.682Z,138.15
2018-03-04T03:46:22.246Z,132.12
2018-03-04T03:47:24.762Z,118.53
2018-03-04T03:48:27.301Z,126.60
2018-03-04T03:49:29.823Z,123.43
2018-03-04T03:50:32.355Z,135.30
2018-03-04T03:51:34.898Z,116.88
2018-03-04T03:52:37.427Z,132.85
2018-03-04T03:53:39.945Z,122.10
2018-03-04T03:54:42.473Z,135.07
2018-03-04T03:55:45.021Z,131.82
2018-03-04T03:56:47.584Z,133.85
2018-03-04T03:57:50.102Z,132.40
2018-03-04T03:58:52.625Z,135.77
2018-03-04T03:59:55.163Z,126.05
2018-03-04T04:00:57.684Z,125.25
2018-03-04T04:02:00.233Z,132.43
2018-03-04T04:03:02.769Z,131.82
2018-03-04T04:04:05.332Z,124.62
2018-03-04T04:05:07.880Z,129.60
2018-03-04T04:06:10.426Z,129.65
2018-03-04T04:07:12.986Z,130.27
2018-03-04T04:08:15.512Z,130.25
2018-03-04T04:09:18.055Z,131.70
2018-03-04T04:10:20.614Z,129.82
2018-03-04T04:11:23.129Z,137.40
2018-03-04T04:12:25.723Z,123.62
2018-03-04T04:13:28.238Z,135.18
2018-03-04T04:14:30.759Z,115.55
2018-03-04T04:15:33.301Z,130.57
2018-03-04T04:16:35.831Z,127.32
2018-03-04T04:17:38.366Z,136.80
2018-03-04T04:18:40.972Z,126.82
2018-03-04T04:19:43.494Z,123.38
2018-03-04T04:20:46.039Z,130.10
2018-03-04T04:21:48.602Z,124.50
2018-03-04T04:22:51.160Z,138.30
2018-03-04T04:23:53.696Z,115.70
2018-03-04T04:24:56.242Z,120.70
2018-03-04T04:25:58.793Z,117.57
2018-03-04T04:27:01.329Z,129.57
2018-03-04T04:28:03.896Z,138.90
2018-03-04T04:29:06.427Z,122.05
2018-03-04T04:30:08.968Z,123.25
2018-03-04T04:31:11.486Z,130.00
2018-03-04T04:32:14.052Z,131.18
2018-03-04T04:33:16.605Z,119.97
2018-03-04T04:34:19.130Z,131.48
2018-03-04T04:35:21.656Z,124.95
2018-03-04T04:36:24.201Z,127.35
2018-03-04T04:37:26.732Z,122.95
2018-03-04T04:38:29.296Z,119.53
2018-03-04T04:39:31.832Z,136.60
2018-03-04T04:40:34.350Z,126.65
2018-03-04T04:41:36.900Z,120.40
2018-03-04T04:42:39.452Z,133.15
2018-03-04T04:43:42.016Z,121.25
2018-03-04T04:44:44.538Z,123.53
2018-03-04T04:45:47.068Z,132.82
2018-03-04T04:46:49.587Z,127.87
2018-03-04T04:47:52.120Z,125.93
2018-03-04T04:48:54.669Z,125.05
2018-03-04T04:49:57.204Z,122.82
2018-03-04T04:50:59.737Z,118.65
2018-03-04T04:52:02.305Z,127.28
2018-03-04T04:53:04.836Z,127.20
2018-03-04T04:54:07.369Z,139.70
2018-03-04T04:55:09.898Z,120.68
2018-03-04T04:56:12.414Z,121.60
2018-03-04T04:57:14.930Z,134.85
2018-03-04T04:58:17.464Z,123.95
2018-03-04T04:59:20.013Z,129.48
2018-03-04T05:00:22.530Z,126.25
2018-03-04T05:01:25.064Z,129.75
2018-03-04T05:02:27.600Z,111.00
2018-03-04T05:03:30.139Z,120.25
2018-03-04T05:04:32.673Z,118.87
2018-03-04T05:05:35.203Z,125.38
2018-03-04T05:06:37.745Z,141.50
2018-03-04T05:07:40.287Z,124.07
2018-03-04T05:08:42.819Z,133.73
2018-03-04T05:09:45.415Z,123.95
2018-03-04T05:10:47.934Z,133.52
2018-03-04T05:11:50.476Z,125.87
2018-03-04T05:12:53.007Z,135.52
2018-03-04T05:13:55.524Z,130.27
2018-03-04T05:14:58.078Z,122.07
2018-03-04T05:16:00.593Z,125.80
2018-03-04T05:17:03.117Z,127.47
2018-03-04T05:18:05.643Z,130.27
2018-03-04T05:19:08.158Z,128.18
2018-03-04T05:20:10.745Z,129.35
2018-03-04T05:21:13.270Z,126.55
2018-03-04T05:22:15.796Z,121.25
2018-03-04T05:23:18.369Z,134.37
2018-03-04T05:24:20.889Z,126.07
2018-03-04T05:25:23.440Z,120.15
2018-03-04T05:26:25.974Z,131.65
2018-03-04T05:27:28.503Z,124.07
2018-03-04T05:28:31.039Z,133.65
2018-03-04T05:29:33.604Z,129.55
2018-03-04T05:30:36.171Z,108.63
2018-03-04T05:31:38.709Z,122.90
2018-03-04T05:32:41.226Z,130.87
2018-03-04T05:33:43.764Z,120.60
2018-03-04T05:34:46.298Z,128.12
2018-03-04T05:35:48.873Z,130.63
2018-03-04T05:36:51.420Z,122.32
2018-03-04T05:37:53.934Z,119.00
2018-03-04T05:38:56.486Z,128.35
2018-03-04T05:39:59.014Z,138.52
2018-03-04T05:41:01.572Z,126.10
2018-03-04T05:42:04.108Z,124.68
2018-03-04T05:43:06.639Z,123.65
2018-03-04T05:44:09.192Z,120.43
2018-03-04T05:45:11.796Z,129.63
2018-03-04T05:46:14.357Z,133.87
2018-03-04T05:47:16.887Z,120.97
2018-03-04T05:48:19.428Z,125.62
2018-03-04T05:49:21.964Z,123.10
2018-03-04T05:50:24.496Z,132.73
2018-03-04T05:51:27.053Z,135.85
2018-03-04T05:52:29.570Z,128.55
2018-03-04T05:53:32.086Z,126.20
2018-03-04T05:54:34.619Z,128.85
2018-03-04T05:55:37.148Z,126.97
2018-03-04T05:56:39.685Z,131.07
2018-03-04T05:57:42.221Z,131.48
2018-03-04T05:58:44.769Z,132.37
2018-03-04T05:59:47.294Z,144.15
2018-03-04T06:00:49.831Z,134.60
2018-03-04T06:01:52.370Z,130.50
2018-03-04T06:02:54.912Z,131.50
2018-03-04T06:03:57.430Z,138.30
2018-03-04T06:04:59.967Z,140.43
2018-03-04T06:06:02.491Z,116.35
2018-03-04T06:07:05.026Z,123.00
2018-03-04T06:08:07.550Z,135.27
2018-03-04T06:09:10.084Z,127.87
2018-03-04T06:10:12.624Z,118.78
2018-03-04T06:11:15.147Z,140.60
2018-03-04T06:12:17.723Z,125.50
2018-03-04T06:13:20.229Z,138.18
2018-03-04T06:14:22.746Z,129.85
2018-03-04T06:15:25.270Z,136.27
2018-03-04T06:16:27.828Z,125.10
2018-03-04T06:17:30.378Z,136.32
2018-03-04T06:18:32.899Z,119.65
2018-03-04T06:19:35.418Z,116.78
2018-03-04T06:20:37.961Z,123.93
2018-03-04T06:21:40.516Z,120.68
2018-03-04T06:22:43.053Z,123.65
2018-03-04T06:23:45.566Z,121.78
2018-03-04T06:24:48.252Z,122.53
2018-03-04T06:25:50.793Z,125.15
2018-03-04T06:26:56.987Z,129.93
2018-03-04T06:28:20.408Z,125.50
2018-03-04T06:29:22.949Z,135.07
2018-03-04T06:30:25.469Z,120.97
2018-03-04T06:31:27.986Z,127.12
2018-03-04T06:32:30.516Z,131.23
2018-03-04T06:33:33.165Z,127.57
2018-03-04T06:34:35.685Z,130.85
2018-03-04T06:35:38.206Z,130.60
2018-03-04T06:36:40.776Z,134.18
2018-03-04T06:37:43.315Z,133.05
2018-03-04T06:38:45.866Z,121.22
2018-03-04T06:39:48.407Z,125.25
2018-03-04T06:40:51.011Z,135.68
2018-03-04T06:41:54.756Z,124.25
2018-03-04T06:42:57.291Z,123.65
2018-03-04T06:43:59.807Z,124.30
2018-03-04T06:45:02.326Z,105.72
2018-03-04T06:46:04.856Z,119.05
2018-03-04T06:47:07.391Z,103.07
2018-03-04T06:48:09.909Z,118.15
2018-03-04T06:49:12.446Z,98.40
2018-03-04T06:50:14.977Z,126.30
2018-03-04T06:51:17.502Z,102.85
2018-03-04T06:52:20.064Z,113.10
2018-03-04T06:53:22.601Z,106.22
2018-03-04T06:54:25.137Z,108.45
2018-03-04T06:55:27.693Z,115.95
2018-03-04T06:56:30.210Z,110.82
2018-03-04T06:57:32.744Z,113.62
2018-03-04T06:58:35.529Z,102.38
2018-03-04T06:59:38.073Z,118.50
2018-03-04T07:00:40.612Z,111.85
2018-03-04T07:01:43.146Z,104.47
2018-03-04T07:02:45.689Z,111.75
2018-03-04T07:03:48.209Z,100.40
2018-03-04T07:04:50.743Z,115.00
2018-03-04T07:05:53.262Z,117.82
2018-03-04T07:06:55.785Z,110.18
2018-03-04T07:07:58.305Z,98.60
2018-03-04T07:09:00.822Z,110.75
2018-03-04T07:10:03.338Z,106.20
2018-03-04T07:11:05.856Z,112.68
2018-03-04T07:12:08.374Z,103.87
2018-03-04T07:13:11.102Z,116.10
2018-03-04T07:14:13.618Z,112.03
2018-03-04T07:15:16.150Z,110.70
2018-03-04T07:16:18.883Z,105.30
2018-03-04T07:18:37.681Z,114.18
2018-03-04T07:19:40.476Z,109.72
2018-03-04T07:20:43.064Z,103.50
2018-03-04T07:21:45.814Z,104.25
2018-03-04T07:22:48.401Z,102.00
2018-03-04T07:23:50.934Z,104.32
2018-03-04T07:24:53.543Z,107.93
2018-03-04T07:25:56.146Z,107.30
2018-03-04T07:26:58.789Z,93.10
2018-03-04T07:28:01.320Z,93.95
2018-03-04T07:29:03.847Z,102.35
2018-03-04T07:30:06.396Z,97.03
2018-03-04T07:31:08.939Z,100.87
2018-03-04T07:32:11.472Z,94.37
2018-03-04T07:33:13.995Z,87.40
2018-03-04T07:34:16.533Z,102.07
2018-03-04T07:35:19.068Z,105.60
2018-03-04T07:36:21.603Z,102.50
2018-03-04T07:37:24.118Z,108.95
2018-03-04T07:38:26.646Z,95.60
2018-03-04T07:39:29.172Z,91.80
2018-03-04T07:40:31.686Z,97.95
2018-03-04T07:41:34.210Z,99.90
2018-03-04T07:42:36.740Z,97.32
2018-03-04T07:43:39.285Z,100.03
2018-03-04T07:44:41.798Z,94.00
2018-03-04T07:45:44.349Z,100.85
2018-03-04T07:46:46.915Z,99.13
2018-03-04T07:47:49.446Z,96.72
2018-03-04T07:48:51.970Z,99.53
2018-03-04T07:49:54.491Z,98.30
2018-03-04T07:50:57.002Z,89.43
2018-03-04T07:51:59.528Z,93.72
2018-03-04T07:53:02.074Z,101.60
2018-03-04T07:54:04.604Z,91.53
2018-03-04T07:55:07.121Z,98.28
2018-03-04T07:56:09.652Z,97.62
2018-03-04T07:57:12.162Z,96.80
2018-03-04T07:58:14.685Z,105.80
2018-03-04T07:59:17.263Z,107.87
2018-03-04T08:00:19.796Z,91.00
2018-03-04T08:01:22.321Z,99.22
2018-03-04T08:02:24.857Z,100.60
2018-03-04T08:03:27.391Z,109.55
2018-03-04T08:04:29.920Z,100.10
2018-03-04T08:05:32.481Z,96.93
2018-03-04T08:06:34.998Z,111.55
2018-03-04T08:07:37.653Z,97.22
2018-03-04T08:08:40.183Z,94.43
2018-03-04T08:09:42.714Z,95.15
2018-03-04T08:10:45.280Z,98.40
2018-03-04T08:11:47.814Z,88.57
2018-03-04T08:12:50.325Z,96.43
2018-03-04T08:13:52.841Z,106.18
2018-03-04T08:14:55.361Z,100.68
2018-03-04T08:15:57.877Z,87.12
2018-03-04T08:17:00.581Z,109.25
2018-03-04T08:18:03.221Z,110.70
2018-03-04T08:19:05.752Z,99.05
2018-03-04T08:20:08.266Z,95.03
2018-03-04T08:21:10.781Z,107.32
2018-03-04T08:22:13.294Z,93.60
2018-03-04T08:23:15.820Z,108.12
2018-03-04T08:24:30.160Z,94.90
2018-03-04T08:25:36.333Z,93.20
2018-03-04T08:26:50.886Z,108.57
2018-03-04T08:28:05.422Z,102.00
2018-03-04T08:29:07.980Z,99.22
2018-03-04T08:30:10.508Z,100.97
2018-03-04T08:31:13.036Z,93.35
2018-03-04T08:32:15.551Z,98.05
2018-03-04T08:33:18.108Z,111.72
2018-03-04T08:34:20.636Z,102.53
2018-03-04T08:35:23.168Z,96.35
2018-03-04T08:36:25.682Z,98.12
2018-03-04T08:37:28.202Z,92.72
2018-03-04T08:38:30.714Z,89.22
2018-03-04T08:39:33.322Z,90.38
2018-03-04T08:40:35.832Z,95.38
2018-03-04T08:41:38.372Z,99.22
2018-03-04T08:42:40.942Z,90.32
2018-03-04T08:43:43.469Z,94.37
2018-03-04T08:44:46.000Z,88.57
2018-03-04T08:45:48.509Z,85.30
2018-03-04T08:46:51.061Z,98.32
2018-03-04T08:47:53.616Z,92.12
2018-03-04T08:48:56.133Z,87.65
2018-03-04T08:49:58.688Z,95.07
2018-03-04T08:52:32.201Z,100.30
2018-03-04T08:53:34.751Z,92.70
2018-03-04T08:54:37.291Z,94.68
2018-03-04T08:55:39.798Z,96.07
2018-03-04T08:56:42.334Z,95.97
2018-03-04T08:57:44.842Z,89.28
2018-03-04T08:58:47.385Z,93.93
2018-03-04T08:59:49.902Z,86.95
2018-03-04T09:00:52.414Z,91.43
2018-03-04T09:01:54.940Z,87.07
2018-03-04T09:02:57.520Z,94.13
2018-03-04T09:04:00.083Z,90.50
2018-03-04T09:05:02.623Z,89.87
2018-03-04T09:06:05.157Z,86.40
2018-03-04T09:07:07.666Z,94.97
2018-03-04T09:08:10.218Z,90.53
2018-03-04T09:09:12.746Z,84.37
2018-03-04T09:10:15.283Z,80.18
2018-03-04T09:11:17.817Z,99.50
2018-03-04T09:12:20.350Z,84.32
2018-03-04T09:13:22.865Z,85.55
2018-03-04T09:14:25.398Z,81.75
2018-03-04T09:15:27.925Z,86.80
2018-03-04T09:16:30.478Z,91.30
2018-03-04T09:17:33.003Z,78.55
2018-03-04T09:18:35.558Z,91.50
2018-03-04T09:19:38.449Z,81.40
2018-03-04T09:20:40.976Z,86.30
2018-03-04T09:21:43.500Z,88.60
2018-03-04T09:22:46.086Z,92.95
2018-03-04T09:23:48.750Z,82.35
2018-03-04T09:24:51.296Z,87.32
2018-03-04T09:25:53.823Z,87.20
2018-03-04T09:26:56.349Z,84.45
2018-03-04T09:27:58.904Z,85.03
2018-03-04T09:29:01.433Z,83.18
2018-03-04T09:30:03.978Z,85.38
2018-03-04T09:31:06.556Z,84.97
2018-03-04T09:32:09.078Z,79.50
2018-03-04T09:33:11.621Z,86.53
2018-03-04T09:34:14.153Z,84.50
2018-03-04T09:35:16.663Z,78.55
2018-03-04T09:36:19.200Z,83.85
2018-03-04T09:37:21.721Z,79.15
2018-03-04T09:38:24.263Z,77.50
2018-03-04T09:39:26.910Z,89.82
2018-03-04T09:40:29.422Z,79.43
2018-03-04T09:41:31.974Z,74.18
2018-03-04T09:42:34.490Z,79.87
2018-03-04T09:43:37.006Z,81.12
2018-03-04T09:44:39.518Z,79.93
2018-03-04T09:45:47.533Z,85.38
2018-03-04T09:46:57.710Z,90.20
2018-03-04T09:48:00.631Z,83.22
2018-03-04T09:49:03.154Z,76.50
2018-03-04T09:50:05.680Z,81.57
2018-03-04T09:51:08.210Z,75.22
2018-03-04T09:52:10.735Z,78.03
2018-03-04T09:53:13.260Z,74.20
2018-03-04T09:54:15.804Z,72.30
2018-03-04T09:55:18.318Z,76.90
2018-03-04T09:56:20.838Z,80.82
2018-03-04T09:57:23.351Z,83.43
2018-03-04T09:58:25.877Z,88.57
2018-03-04T09:59:28.390Z,84.65
2018-03-04T10:00:30.902Z,80.30
2018-03-04T10:01:33.450Z,85.70
2018-03-04T10:02:35.961Z,77.10
2018-03-04T10:03:38.486Z,79.10
2018-03-04T10:04:40.999Z,74.50
2018-03-04T10:05:43.564Z,71.95
2018-03-04T10:06:46.088Z,79.80
2018-03-04T10:07:48.607Z,79.25
2018-03-04T10:08:51.121Z,88.35
2018-03-04T10:09:53.680Z,82.07
2018-03-04T10:10:56.195Z,80.80
2018-03-04T10:11:58.710Z,83.70
2018-03-04T10:13:01.229Z,76.22
2018-03-04T10:14:03.756Z,78.25
2018-03-04T10:15:06.308Z,73.78
2018-03-04T10:16:08.840Z,70.00
2018-03-04T10:17:11.364Z,81.10
2018-03-04T10:18:13.878Z,76.37
2018-03-04T10:19:16.430Z,78.87
2018-03-04T10:20:18.987Z,77.43
2018-03-04T10:21:21.516Z,77.00
2018-03-04T10:22:24.045Z,70.45
2018-03-04T10:23:26.580Z,73.18
2018-03-04T10:24:29.115Z,71.90
2018-03-04T10:25:31.675Z,72.78
2018-03-04T10:26:34.222Z,76.55
2018-03-04T10:27:36.752Z,67.18
2018-03-04T10:28:39.273Z,68.80
2018-03-04T10:29:41.791Z,69.10
2018-03-04T10:30:44.309Z,65.00
2018-03-04T10:31:46.837Z,67.68
2018-03-04T10:32:49.425Z,64.50
2018-03-04T10:33:51.955Z,63.87
2018-03-04T10:34:54.475Z,64.35
2018-03-04T10:35:57.012Z,65.32
2018-03-04T10:36:59.539Z,72.07
2018-03-04T10:38:02.073Z,67.65
2018-03-04T10:39:04.631Z,62.47
2018-03-04T10:40:07.146Z,64.05
2018-03-04T10:41:09.680Z,53.17
2018-03-04T10:42:12.208Z,55.03
2018-03-04T10:43:14.740Z,53.22
2018-03-04T10:44:17.258Z,61.45
2018-03-04T10:45:19.801Z,57.80
2018-03-04T10:46:22.390Z,54.65
2018-03-04T10:47:24.903Z,51.50
2018-03-04T10:48:27.440Z,60.90
2018-03-04T10:49:29.962Z,58.42
2018-03-04T10:50:32.496Z,58.30
2018-03-04T10:51:35.010Z,65.35
2018-03-04T10:52:37.540Z,60.65
2018-03-04T10:53:40.066Z,54.85
2018-03-04T10:54:42.586Z,59.33
2018-03-04T10:55:45.104Z,64.28
2018-03-04T10:56:47.639Z,59.08
2018-03-04T10:57:50.151Z,61.08
2018-03-04T10:58:52.688Z,57.00
2018-03-04T10:59:55.220Z,60.00
2018-03-04T11:00:57.751Z,63.28
2018-03-04T11:02:05.288Z,65.95
2018-03-04T11:03:07.813Z,68.65
2018-03-04T11:04:10.376Z,74.47
2018-03-04T11:05:12.885Z,65.95
2018-03-04T11:06:15.411Z,67.12
2018-03-04T11:07:18.004Z,75.35
2018-03-04T11:08:20.624Z,64.40
2018-03-04T11:09:23.156Z,68.68
2018-03-04T11:10:25.684Z,69.90
2018-03-04T11:11:28.420Z,71.68
2018-03-04T11:12:30.968Z,69.78
2018-03-04T11:13:33.487Z,67.75
2018-03-04T11:14:36.088Z,65.35
2018-03-04T11:15:38.614Z,65.53
2018-03-04T11:16:41.136Z,78.03
2018-03-04T11:17:43.736Z,70.28
2018-03-04T11:18:46.632Z,73.40
2018-03-04T11:19:49.185Z,59.75
2018-03-04T11:20:51.698Z,68.75
2018-03-04T11:21:54.227Z,65.97
2018-03-04T11:22:56.875Z,68.68
2018-03-04T11:23:59.423Z,71.37
2018-03-04T11:25:01.996Z,71.07
2018-03-04T11:26:04.522Z,55.00
2018-03-04T11:27:07.055Z,52.03
2018-03-04T11:28:09.597Z,59.30
2018-03-04T11:29:12.111Z,56.85
2018-03-04T11:30:14.637Z,62.13
2018-03-04T11:31:17.200Z,57.05
2018-03-04T11:32:19.813Z,50.80
2018-03-04T11:33:22.359Z,48.15
2018-03-04T11:34:24.884Z,54.97
2018-03-04T11:35:27.425Z,53.28
2018-03-04T11:36:29.942Z,55.38
2018-03-04T11:37:32.462Z,57.35
2018-03-04T11:38:35.018Z,55.85
2018-03-04T11:39:37.535Z,56.20
2018-03-04T11:40:40.064Z,53.13
2018-03-04T11:41:42.578Z,49.22
2018-03-04T11:42:45.105Z,47.83
2018-03-04T11:43:47.666Z,57.58
2018-03-04T11:44:50.200Z,48.03
2018-03-04T11:45:52.718Z,53.72
2018-03-04T11:46:55.246Z,53.70
2018-03-04T11:47:57.759Z,49.38
2018-03-04T11:49:00.294Z,59.90
2018-03-04T11:50:02.826Z,55.75
2018-03-04T11:51:05.386Z,51.95
2018-03-04T11:52:07.906Z,52.83
2018-03-04T11:53:10.436Z,55.35
2018-03-04T11:54:13.037Z,54.05
2018-03-04T11:55:15.541Z,54.50
2018-03-04T11:56:18.058Z,56.47
2018-03-04T11:57:20.633Z,53.92
2018-03-04T11:58:23.176Z,48.90
2018-03-04T11:59:25.795Z,56.78
2018-03-04T12:00:28.308Z,54.92
2018-03-04T12:01:30.833Z,48.70
2018-03-04T12:02:33.395Z,52.28
2018-03-04T12:03:35.948Z,49.40
2018-03-04T12:04:38.532Z,47.20
2018-03-04T12:05:41.064Z,45.22
2018-03-04T12:06:43.623Z,48.28
2018-03-04T12:07:46.231Z,53.85
2018-03-04T12:08:48.768Z,45.80
2018-03-04T12:09:51.312Z,48.53
2018-03-04T12:10:53.851Z,48.10
2018-03-04T12:11:56.395Z,49.38
2018-03-04T12:12:58.937Z,49.17
2018-03-04T12:14:01.449Z,50.25
2018-03-04T12:15:04.017Z,52.25
2018-03-04T12:16:06.531Z,50.17
2018-03-04T12:17:09.084Z,44.05
2018-03-04T12:18:11.684Z,43.97
2018-03-04T12:19:14.207Z,44.67
2018-03-04T12:20:16.753Z,45.90
2018-03-04T12:21:19.345Z,43.17
2018-03-04T12:22:21.881Z,51.65
2018-03-04T12:23:24.394Z,40.17
2018-03-04T12:24:26.930Z,40.17
2018-03-04T12:25:29.474Z,38.35
2018-03-04T12:26:31.999Z,40.75
2018-03-04T12:27:34.589Z,40.65
2018-03-04T12:28:37.386Z,42.53
2018-03-04T12:29:39.916Z,45.72
2018-03-04T12:30:42.458Z,39.35
2018-03-04T12:31:44.983Z,40.38
2018-03-04T12:32:47.554Z,43.38
2018-03-04T12:33:50.090Z,43.15
2018-03-04T12:34:52.607Z,41.58
2018-03-04T12:35:55.166Z,39.00
2018-03-04T12:36:57.734Z,40.03
2018-03-04T12:38:00.249Z,37.72
2018-03-04T12:39:02.803Z,40.72
2018-03-04T12:40:05.340Z,43.83
2018-03-04T12:41:07.882Z,44.75
2018-03-04T12:42:10.434Z,38.03
2018-03-04T12:43:12.945Z,40.63
2018-03-04T12:44:15.479Z,36.50
2018-03-04T12:45:18.048Z,36.10
2018-03-04T12:46:20.597Z,38.42
2018-03-04T12:47:23.320Z,36.80
2018-03-04T12:48:25.844Z,28.70
2018-03-04T12:49:28.366Z,36.80
2018-03-04T12:50:30.878Z,28.62
2018-03-04T12:51:33.424Z,31.50
2018-03-04T12:52:35.955Z,32.30
2018-03-04T12:53:38.488Z,27.37
2018-03-04T12:54:41.058Z,29.50
2018-03-04T12:55:43.605Z,32.45
2018-03-04T12:56:46.260Z,29.52
2018-03-04T12:57:48.789Z,29.75
2018-03-04T12:58:51.330Z,31.85
2018-03-04T12:59:53.847Z,29.65
2018-03-04T13:00:56.380Z,31.62
2018-03-04T13:01:58.930Z,30.58
2018-03-04T13:03:01.450Z,35.20
2018-03-04T13:04:03.996Z,32.67
2018-03-04T13:05:06.535Z,31.67
2018-03-04T13:06:09.070Z,28.62
2018-03-04T13:07:12.488Z,34.60
2018-03-04T13:08:15.077Z,28.45
2018-03-04T13:09:17.626Z,30.35
2018-03-04T13:10:20.179Z,29.95
2018-03-04T13:11:22.708Z,23.35
2018-03-04T13:12:25.256Z,27.45
2018-03-04T13:13:27.785Z,24.50
2018-03-04T13:14:30.395Z,27.87